Nearby METAR Reports

 

KHQM - Hoquiam,WA, USA
Updated: 02/22/2020 3:53am
Mist, Overcast
Mist, Overcast
 Wind from S
Wind: S 7 mph , 11 km/h
Temperature: 43°F , 6°C
Wind Chill: 39°F , 4°C
Dew Point: 43°F , 6°C
Humidity: 100%
Barometer: 30.14 inHg , 1020.7 hPa
Summary: Mist
Clouds: Overcast
Visibility: 4 miles , 6 km
Cloud details: Mostly cloudy 800 ft
Overcast 1100 ft
2020/02/22 11:53 KHQM 221153Z AUTO 17006KT 4SM BR BKN008 OVC011 06/06 A3014 RMK AO2 SLP211 T00610056 10067 20044 56010